Dillingham Airport Dillingham US
ICAO: PADL
IATA:
Category: Medium
Scheduled Services:

Elevation: 81 ft
TransAlt. 18000 ft.

Airport Communications:
ATIS:125
AWOS 3:135.55
ANCHORAGE CNTR:132.75
CTAF:123.6
RDO:122.3

PADL Zoom In..

If you have problems with the map follow the link
https://www.worldairports.se/pages/airport.php?
ICAO=PADL

Runways:

(A) RW 01 length 6400 ft width 150 ft
LOC 111.90 / hdg 11

(B) RW 19 length 6400 ft width 150 ft
LOC 111.90 / hdg 191

Location; PADL
Day. 22 / Time. 12.56 Zulu
* Altimeter: 29.32
* Temperature: 04° c. 39.2°f.
* Wind from: 080° Speed 07 kn.
Dewpoint: 02° c.
Visibility: 10 Statute Miles.
Clouds: Broken 4500 ft.
Clouds: Overcast 9500 ft.

PADL 221256Z AUTO 08007KT 10SM BKN045 OVC095 04/02 A2932 RMK AO2 SLP935 T00390022


Wind From 080°
Speed 07 kn.

 
 
jpsmedia.com for Web Design worldairports.se 2018   terms of use